createdAt,value
2019-01-11T00:00:06.344Z,3.58
2019-01-11T00:02:36.701Z,3.64
2019-01-11T00:05:07.169Z,3.68
2019-01-11T00:07:37.413Z,3.67
2019-01-11T00:10:09.337Z,3.73
2019-01-11T00:12:45.023Z,3.79
2019-01-11T00:15:16.900Z,3.87
2019-01-11T00:17:47.555Z,3.83
2019-01-11T00:20:17.933Z,3.79
2019-01-11T00:22:48.352Z,3.83
2019-01-11T00:25:18.630Z,3.87
2019-01-11T00:27:48.883Z,3.89
2019-01-11T00:30:19.216Z,3.86
2019-01-11T00:32:49.502Z,3.90
2019-01-11T00:35:19.833Z,3.97
2019-01-11T00:37:50.359Z,3.98
2019-01-11T00:40:21.709Z,4.00
2019-01-11T00:42:52.001Z,3.99
2019-01-11T00:45:22.384Z,4.02
2019-01-11T00:47:52.656Z,4.04
2019-01-11T00:50:23.395Z,4.05
2019-01-11T00:52:53.819Z,4.04
2019-01-11T00:55:24.713Z,4.08
2019-01-11T00:57:54.979Z,4.11
2019-01-11T01:00:25.545Z,4.21
2019-01-11T01:02:55.830Z,4.28
2019-01-11T01:05:26.301Z,4.30
2019-01-11T01:07:57.670Z,4.34
2019-01-11T01:10:28.033Z,4.38
2019-01-11T01:12:58.326Z,4.39
2019-01-11T01:15:29.704Z,4.41
2019-01-11T01:18:00.004Z,4.45
2019-01-11T01:20:30.499Z,4.47
2019-01-11T01:23:00.829Z,4.47
2019-01-11T01:25:31.137Z,4.44
2019-01-11T01:28:01.550Z,4.47
2019-01-11T01:30:32.101Z,4.48
2019-01-11T01:33:02.603Z,4.46
2019-01-11T01:35:33.261Z,4.49
2019-01-11T01:38:03.565Z,4.56
2019-01-11T01:40:33.887Z,4.58
2019-01-11T01:43:04.723Z,4.58
2019-01-11T01:45:35.629Z,4.59
2019-01-11T01:48:05.960Z,4.61
2019-01-11T01:50:36.551Z,4.67
2019-01-11T01:53:06.926Z,4.68
2019-01-11T01:55:38.266Z,4.70
2019-01-11T01:58:08.559Z,4.71
2019-01-11T02:00:40.188Z,4.73
2019-01-11T02:03:10.481Z,4.78
2019-01-11T02:05:40.981Z,4.85
2019-01-11T02:08:11.348Z,4.88
2019-01-11T02:10:41.774Z,4.94
2019-01-11T02:13:12.550Z,4.91
2019-01-11T02:15:43.903Z,4.97
2019-01-11T02:18:14.286Z,5.01
2019-01-11T02:20:45.079Z,5.01
2019-01-11T02:23:15.376Z,5.05
2019-01-11T02:25:46.338Z,5.10
2019-01-11T02:28:17.082Z,5.14
2019-01-11T02:30:47.501Z,5.13
2019-01-11T02:33:24.898Z,5.14
2019-01-11T02:35:50.353Z,5.17
2019-01-11T02:38:20.724Z,5.16
2019-01-11T02:40:51.461Z,5.18
2019-01-11T02:43:21.778Z,5.19
2019-01-11T02:45:53.210Z,5.19
2019-01-11T02:48:23.649Z,5.23
2019-01-11T02:50:54.103Z,5.26
2019-01-11T02:53:24.785Z,5.30
2019-01-11T02:55:55.280Z,5.34
2019-01-11T02:58:25.554Z,5.36
2019-01-11T03:00:56.244Z,5.38
2019-01-11T03:03:26.706Z,5.46
2019-01-11T03:05:57.483Z,5.53
2019-01-11T03:08:27.707Z,5.53
2019-01-11T03:10:57.984Z,5.55
2019-01-11T03:13:28.333Z,5.57
2019-01-11T03:15:58.684Z,5.61
2019-01-11T03:18:29.487Z,5.65
2019-01-11T03:21:01.077Z,5.67
2019-01-11T03:23:32.343Z,5.76
2019-01-11T03:26:02.614Z,5.84
2019-01-11T03:28:32.882Z,5.83
2019-01-11T03:31:11.453Z,5.82
2019-01-11T03:33:41.994Z,5.76
2019-01-11T03:36:12.216Z,5.76
2019-01-11T03:38:42.445Z,5.77
2019-01-11T03:41:12.668Z,5.77
2019-01-11T03:43:43.045Z,5.79
2019-01-11T03:46:13.540Z,5.85
2019-01-11T03:48:43.815Z,5.90
2019-01-11T03:51:14.102Z,5.91
2019-01-11T03:53:44.493Z,5.92
2019-01-11T03:56:14.732Z,5.95
2019-01-11T03:58:45.513Z,5.99
2019-01-11T04:01:15.815Z,6.02
2019-01-11T04:03:46.077Z,6.05
2019-01-11T04:06:16.373Z,6.10
2019-01-11T04:08:46.636Z,6.14
2019-01-11T04:11:16.851Z,6.18
2019-01-11T04:13:47.347Z,6.29
2019-01-11T04:16:19.308Z,6.35
2019-01-11T04:18:56.533Z,6.38
2019-01-11T04:21:26.924Z,6.42
2019-01-11T04:23:57.149Z,6.49
2019-01-11T04:26:27.345Z,6.51
2019-01-11T04:28:58.654Z,6.53
2019-01-11T04:31:29.875Z,6.55
2019-01-11T04:34:00.186Z,6.62
2019-01-11T04:36:30.553Z,6.66
2019-01-11T04:39:06.140Z,6.76
2019-01-11T04:41:36.850Z,6.80
2019-01-11T04:44:08.683Z,6.81
2019-01-11T04:46:38.855Z,6.81
2019-01-11T04:49:09.253Z,6.82
2019-01-11T04:51:39.775Z,6.82
2019-01-11T04:54:10.067Z,6.85
2019-01-11T04:56:40.840Z,6.90
2019-01-11T04:59:11.103Z,6.95
2019-01-11T05:01:42.103Z,6.95
2019-01-11T05:04:12.451Z,6.95
2019-01-11T05:06:42.691Z,6.97
2019-01-11T05:09:13.174Z,7.03
2019-01-11T05:11:43.838Z,7.05
2019-01-11T05:14:14.073Z,7.03
2019-01-11T05:16:47.546Z,7.04
2019-01-11T05:19:17.793Z,7.04
2019-01-11T05:21:48.081Z,7.05
2019-01-11T05:24:18.297Z,7.05
2019-01-11T05:26:48.994Z,7.04
2019-01-11T05:29:19.340Z,7.09
2019-01-11T05:31:49.642Z,7.12
2019-01-11T05:34:19.967Z,7.19
2019-01-11T05:36:50.327Z,7.21
2019-01-11T05:39:20.804Z,7.16
2019-01-11T05:41:51.147Z,7.16
2019-01-11T05:44:21.333Z,7.15
2019-01-11T05:46:52.795Z,7.15
2019-01-11T05:49:23.872Z,7.14
2019-01-11T05:51:55.390Z,7.15
2019-01-11T05:54:26.180Z,7.14
2019-01-11T05:56:56.425Z,7.16
2019-01-11T05:59:28.287Z,7.14
2019-01-11T06:01:58.720Z,7.15
2019-01-11T06:04:43.408Z,7.13
2019-01-11T06:07:25.473Z,7.14
2019-01-11T06:09:55.718Z,7.14
2019-01-11T06:12:25.944Z,7.19
2019-01-11T06:14:56.262Z,7.21
2019-01-11T06:17:26.544Z,7.21
2019-01-11T06:19:56.818Z,7.21
2019-01-11T06:22:27.165Z,7.20
2019-01-11T06:24:58.959Z,7.25
2019-01-11T06:27:30.547Z,7.25
2019-01-11T06:30:00.911Z,7.22
2019-01-11T06:32:31.258Z,7.20
2019-01-11T06:35:01.666Z,7.26
2019-01-11T06:37:31.993Z,7.34
2019-01-11T06:40:02.599Z,7.35
2019-01-11T06:42:34.916Z,7.34
2019-01-11T06:45:06.655Z,7.40
2019-01-11T06:47:37.356Z,7.47
2019-01-11T06:50:11.558Z,7.44
2019-01-11T06:52:41.800Z,7.45
2019-01-11T06:55:12.429Z,7.48
2019-01-11T06:57:42.776Z,7.48
2019-01-11T07:00:14.637Z,7.48
2019-01-11T07:02:45.292Z,7.48
2019-01-11T07:05:15.549Z,7.50
2019-01-11T07:07:46.998Z,7.50
2019-01-11T07:10:18.961Z,7.51
2019-01-11T07:12:49.302Z,7.53
2019-01-11T07:15:19.924Z,7.56
2019-01-11T07:17:50.145Z,7.60
2019-01-11T07:20:20.691Z,7.64
2019-01-11T07:22:51.254Z,7.68
2019-01-11T07:25:21.784Z,7.71
2019-01-11T07:27:59.457Z,7.75
2019-01-11T07:30:40.844Z,7.81
2019-01-11T07:33:15.161Z,7.81
2019-01-11T07:35:51.528Z,7.84
2019-01-11T07:38:22.590Z,7.81
2019-01-11T07:40:52.897Z,7.74
2019-01-11T07:43:23.424Z,7.73
2019-01-11T07:45:54.492Z,7.70
2019-01-11T07:48:25.803Z,7.70
2019-01-11T07:50:56.167Z,7.69
2019-01-11T07:53:26.710Z,7.68
2019-01-11T07:55:57.017Z,7.70
2019-01-11T07:58:27.895Z,7.68
2019-01-11T08:00:58.594Z,7.70
2019-01-11T08:03:29.302Z,7.69
2019-01-11T08:06:00.721Z,7.73
2019-01-11T08:08:30.968Z,7.77
2019-01-11T08:11:02.402Z,7.79
2019-01-11T08:13:33.018Z,7.77
2019-01-11T08:16:04.617Z,7.70
2019-01-11T08:18:37.275Z,7.69
2019-01-11T08:21:07.928Z,7.65
2019-01-11T08:23:40.394Z,7.65
2019-01-11T08:26:10.855Z,7.63
2019-01-11T08:28:41.183Z,7.62
2019-01-11T08:31:12.560Z,7.60
2019-01-11T08:33:42.898Z,7.60
2019-01-11T08:36:13.161Z,7.63
2019-01-11T08:38:43.443Z,7.70
2019-01-11T08:41:14.055Z,7.75
2019-01-11T08:43:44.613Z,7.74
2019-01-11T08:46:14.885Z,7.78
2019-01-11T08:48:45.150Z,7.75
2019-01-11T08:51:17.423Z,7.71
2019-01-11T08:53:47.992Z,7.70
2019-01-11T08:56:18.310Z,7.69
2019-01-11T08:58:49.044Z,7.70
2019-01-11T09:01:21.671Z,7.66
2019-01-11T09:03:52.320Z,7.62
2019-01-11T09:06:31.350Z,7.62
2019-01-11T09:09:02.004Z,7.65
2019-01-11T09:11:32.270Z,7.66
2019-01-11T09:14:03.782Z,7.68
2019-01-11T09:16:35.039Z,7.73
2019-01-11T09:19:07.443Z,7.74
2019-01-11T09:21:41.573Z,7.73
2019-01-11T09:24:10.216Z,7.73
2019-01-11T09:26:40.666Z,7.75
2019-01-11T09:29:11.067Z,7.87
2019-01-11T09:31:42.336Z,7.87
2019-01-11T09:34:18.782Z,7.99
2019-01-11T09:36:49.073Z,8.01
2019-01-11T09:39:19.618Z,7.90
2019-01-11T09:41:51.966Z,7.87
2019-01-11T09:44:22.222Z,7.86
2019-01-11T09:46:52.543Z,7.80
2019-01-11T09:49:23.459Z,7.78
2019-01-11T09:51:54.921Z,7.77
2019-01-11T09:54:25.644Z,7.79
2019-01-11T09:56:56.642Z,7.79
2019-01-11T09:59:27.042Z,7.87
2019-01-11T10:02:22.504Z,7.90
2019-01-11T10:04:54.079Z,7.94
2019-01-11T10:07:29.341Z,7.91
2019-01-11T10:09:59.558Z,7.94
2019-01-11T10:12:29.972Z,7.97
2019-01-11T10:15:00.482Z,8.02
2019-01-11T10:17:30.870Z,8.00
2019-01-11T10:20:01.346Z,8.06
2019-01-11T10:22:31.696Z,8.15
2019-01-11T10:25:01.938Z,8.28
2019-01-11T10:27:32.171Z,8.34
2019-01-11T10:30:15.909Z,8.39
2019-01-11T10:32:46.625Z,8.41
2019-01-11T10:35:17.568Z,8.54
2019-01-11T10:37:48.758Z,8.63
2019-01-11T10:40:19.211Z,8.65
2019-01-11T10:42:49.758Z,8.67
2019-01-11T10:45:22.824Z,8.77
2019-01-11T10:47:53.979Z,8.84
2019-01-11T10:50:24.322Z,8.90
2019-01-11T10:52:56.530Z,8.89
2019-01-11T10:55:26.876Z,8.91
2019-01-11T10:57:57.122Z,9.02
2019-01-11T11:00:28.505Z,9.00
2019-01-11T11:02:59.310Z,8.93
2019-01-11T11:05:30.082Z,8.95
2019-01-11T11:08:00.566Z,8.98
2019-01-11T11:10:31.301Z,8.95
2019-01-11T11:13:01.667Z,8.96
2019-01-11T11:15:32.430Z,8.93
2019-01-11T11:18:02.779Z,8.96
2019-01-11T11:20:33.335Z,8.98
2019-01-11T11:23:03.689Z,8.95
2019-01-11T11:25:34.078Z,8.93
2019-01-11T11:28:04.586Z,8.99
2019-01-11T11:30:35.399Z,8.94
2019-01-11T11:33:06.238Z,8.90
2019-01-11T11:35:37.046Z,8.85
2019-01-11T11:38:07.642Z,8.84
2019-01-11T11:40:38.104Z,8.84
2019-01-11T11:43:08.639Z,8.89
2019-01-11T11:45:39.004Z,8.86
2019-01-11T11:48:09.519Z,8.87
2019-01-11T11:50:40.294Z,8.89
2019-01-11T11:53:10.741Z,8.88
2019-01-11T11:55:42.360Z,8.86
2019-01-11T11:58:12.864Z,8.80
2019-01-11T12:00:43.573Z,8.82
2019-01-11T12:03:13.850Z,8.89
2019-01-11T12:05:44.193Z,8.94
2019-01-11T12:08:14.910Z,8.85
2019-01-11T12:10:45.529Z,8.79
2019-01-11T12:13:15.836Z,8.76
2019-01-11T12:15:46.132Z,8.80
2019-01-11T12:18:17.409Z,8.75
2019-01-11T12:20:47.841Z,8.75
2019-01-11T12:23:19.575Z,8.74
2019-01-11T12:25:50.127Z,8.66
2019-01-11T12:28:20.719Z,8.60
2019-01-11T12:30:52.438Z,8.68
2019-01-11T12:33:23.028Z,8.73
2019-01-11T12:35:53.431Z,8.62
2019-01-11T12:38:25.149Z,8.57
2019-01-11T12:40:55.655Z,8.55
2019-01-11T12:43:27.105Z,8.65
2019-01-11T12:45:58.046Z,8.62
2019-01-11T12:48:28.323Z,8.64
2019-01-11T12:50:58.828Z,8.62
2019-01-11T12:53:29.682Z,8.55
2019-01-11T12:56:01.165Z,8.56
2019-01-11T12:58:32.794Z,8.56
2019-01-11T13:01:03.288Z,8.58
2019-01-11T13:03:34.133Z,8.65
2019-01-11T13:06:04.442Z,8.61
2019-01-11T13:08:35.129Z,8.58
2019-01-11T13:11:05.540Z,8.50
2019-01-11T13:13:36.522Z,8.50
2019-01-11T13:16:08.154Z,8.55
2019-01-11T13:18:38.501Z,8.61
2019-01-11T13:21:10.792Z,8.56
2019-01-11T13:23:42.449Z,8.55
2019-01-11T13:26:13.450Z,8.57
2019-01-11T13:28:44.105Z,8.57
2019-01-11T13:31:16.600Z,8.53
2019-01-11T13:33:46.975Z,8.49
2019-01-11T13:36:20.065Z,8.42
2019-01-11T13:38:50.597Z,8.39
2019-01-11T13:41:22.165Z,8.40
2019-01-11T13:43:52.585Z,8.39
2019-01-11T13:46:24.135Z,8.29
2019-01-11T13:48:54.869Z,8.31
2019-01-11T13:51:25.438Z,8.30
2019-01-11T13:53:55.876Z,8.28
2019-01-11T13:56:26.476Z,8.35
2019-01-11T13:58:57.803Z,8.33
2019-01-11T14:01:28.589Z,8.31
2019-01-11T14:04:00.531Z,8.26
2019-01-11T14:06:31.676Z,8.21
2019-01-11T14:09:02.125Z,8.09
2019-01-11T14:11:33.691Z,8.03
2019-01-11T14:14:04.080Z,8.01
2019-01-11T14:16:35.152Z,8.02
2019-01-11T14:19:06.585Z,8.04
2019-01-11T14:21:38.073Z,8.04
2019-01-11T14:24:10.497Z,8.03
2019-01-11T14:26:40.747Z,8.02
2019-01-11T14:29:11.203Z,8.01
2019-01-11T14:31:42.827Z,8.00
2019-01-11T14:34:14.353Z,7.95
2019-01-11T14:36:44.607Z,7.95
2019-01-11T14:39:15.104Z,7.94
2019-01-11T14:41:45.834Z,7.92
2019-01-11T14:44:17.732Z,7.85
2019-01-11T14:46:49.405Z,7.73
2019-01-11T14:49:20.162Z,7.69
2019-01-11T14:51:50.819Z,7.69
2019-01-11T14:54:21.790Z,7.69
2019-01-11T14:57:01.167Z,7.62
2019-01-11T14:59:31.445Z,7.57
2019-01-11T15:02:01.848Z,7.50
2019-01-11T15:04:32.553Z,7.46
2019-01-11T15:07:08.523Z,7.44
2019-01-11T15:09:42.498Z,7.33
2019-01-11T15:12:13.177Z,7.33
2019-01-11T15:14:45.356Z,7.31
2019-01-11T15:17:15.972Z,7.31
2019-01-11T15:19:48.563Z,7.23
2019-01-11T15:22:26.426Z,7.16
2019-01-11T15:24:53.777Z,7.08
2019-01-11T15:27:27.026Z,7.06
2019-01-11T15:29:57.728Z,7.08
2019-01-11T15:32:30.746Z,7.04
2019-01-11T15:35:03.520Z,7.02
2019-01-11T15:37:51.598Z,6.99
2019-01-11T15:40:36.951Z,6.98
2019-01-11T15:43:10.396Z,6.98
2019-01-11T15:45:45.493Z,7.02
2019-01-11T15:48:20.397Z,7.03
2019-01-11T15:50:58.202Z,7.07
2019-01-11T15:53:38.934Z,7.10
2019-01-11T15:56:11.143Z,7.00
2019-01-11T15:58:43.168Z,6.99
2019-01-11T16:01:13.834Z,6.92
2019-01-11T16:03:44.236Z,6.91
2019-01-11T16:06:37.124Z,6.90
2019-01-11T16:09:27.306Z,6.81
2019-01-11T16:12:10.025Z,6.82
2019-01-11T16:15:32.063Z,6.83
2019-01-11T16:18:08.486Z,6.83
2019-01-11T16:20:40.227Z,6.79
2019-01-11T16:23:11.064Z,6.75
2019-01-11T16:25:41.439Z,6.75
2019-01-11T16:28:12.003Z,6.75
2019-01-11T16:30:43.267Z,6.73
2019-01-11T16:33:13.919Z,6.70
2019-01-11T16:35:44.550Z,6.77
2019-01-11T16:38:16.106Z,6.78
2019-01-11T16:40:46.579Z,6.86
2019-01-11T16:43:19.309Z,6.78
2019-01-11T16:45:49.843Z,6.72
2019-01-11T16:48:21.836Z,6.66
2019-01-11T16:50:56.494Z,6.61
2019-01-11T16:53:27.231Z,6.60
2019-01-11T16:55:58.732Z,6.58
2019-01-11T16:58:30.021Z,6.54
2019-01-11T17:01:00.919Z,6.46
2019-01-11T17:03:33.524Z,6.42
2019-01-11T17:06:04.264Z,6.38
2019-01-11T17:08:37.796Z,6.33
2019-01-11T17:11:08.250Z,6.29
2019-01-11T17:13:40.734Z,6.28
2019-01-11T17:16:10.988Z,6.20
2019-01-11T17:18:41.269Z,6.18
2019-01-11T17:21:11.857Z,6.17
2019-01-11T17:23:43.167Z,6.21
2019-01-11T17:26:13.634Z,6.21
2019-01-11T17:28:44.647Z,6.14
2019-01-11T17:31:15.207Z,6.12
2019-01-11T17:33:46.695Z,6.11
2019-01-11T17:36:16.961Z,6.12
2019-01-11T17:38:47.337Z,6.02
2019-01-11T17:41:18.143Z,5.98
2019-01-11T17:43:48.670Z,6.04
2019-01-11T17:46:19.361Z,6.00
2019-01-11T17:48:50.101Z,5.94
2019-01-11T17:51:20.879Z,5.90
2019-01-11T17:53:52.514Z,5.85
2019-01-11T17:56:24.765Z,5.88
2019-01-11T17:58:56.519Z,5.89
2019-01-11T18:01:26.851Z,5.88
2019-01-11T18:03:57.749Z,5.82
2019-01-11T18:06:28.550Z,5.78
2019-01-11T18:08:59.222Z,5.79
2019-01-11T18:11:30.121Z,5.76
2019-01-11T18:14:00.761Z,5.76
2019-01-11T18:16:31.265Z,5.69
2019-01-11T18:19:01.867Z,5.71
2019-01-11T18:21:32.502Z,5.75
2019-01-11T18:24:02.824Z,5.67
2019-01-11T18:26:33.235Z,5.66
2019-01-11T18:29:03.729Z,5.66
2019-01-11T18:31:35.257Z,5.64
2019-01-11T18:34:05.582Z,5.57
2019-01-11T18:36:35.802Z,5.53
2019-01-11T18:39:08.582Z,5.58
2019-01-11T18:41:39.418Z,5.58
2019-01-11T18:44:09.744Z,5.61
2019-01-11T18:46:40.004Z,5.65
2019-01-11T18:49:10.381Z,5.61
2019-01-11T18:51:40.756Z,5.57
2019-01-11T18:54:11.015Z,5.53
2019-01-11T18:56:41.404Z,5.50
2019-01-11T18:59:11.938Z,5.47
2019-01-11T19:01:42.389Z,5.43
2019-01-11T19:04:13.787Z,5.45
2019-01-11T19:06:44.185Z,5.43
2019-01-11T19:09:15.470Z,5.42
2019-01-11T19:11:46.120Z,5.39
2019-01-11T19:14:17.366Z,5.36
2019-01-11T19:16:48.156Z,5.35
2019-01-11T19:19:18.845Z,5.32
2019-01-11T19:21:59.437Z,5.24
2019-01-11T19:24:34.280Z,5.23
2019-01-11T19:27:06.349Z,5.18
2019-01-11T19:29:36.778Z,5.28
2019-01-11T19:32:17.545Z,5.26
2019-01-11T19:34:55.861Z,5.19
2019-01-11T19:37:27.697Z,5.21
2019-01-11T19:39:58.022Z,5.17
2019-01-11T19:42:28.607Z,5.25
2019-01-11T19:44:59.332Z,5.18
2019-01-11T19:47:30.277Z,5.19
2019-01-11T19:50:01.234Z,5.16
2019-01-11T19:52:31.602Z,5.13
2019-01-11T19:55:03.016Z,5.11
2019-01-11T19:57:33.340Z,5.09
2019-01-11T20:00:04.286Z,5.09
2019-01-11T20:02:34.565Z,5.02
2019-01-11T20:05:06.180Z,5.02
2019-01-11T20:07:36.484Z,4.99
2019-01-11T20:10:11.883Z,5.03
2019-01-11T20:12:42.379Z,5.02
2019-01-11T20:15:12.876Z,5.05
2019-01-11T20:17:43.233Z,5.02
2019-01-11T20:20:14.423Z,5.05
2019-01-11T20:22:45.155Z,5.04
2019-01-11T20:25:22.182Z,5.01
2019-01-11T20:27:52.666Z,4.96
2019-01-11T20:30:25.301Z,4.90
2019-01-11T20:32:55.734Z,4.93
2019-01-11T20:35:26.444Z,4.93
2019-01-11T20:37:57.475Z,5.01
2019-01-11T20:40:28.177Z,4.97
2019-01-11T20:42:58.421Z,4.95
2019-01-11T20:45:29.023Z,4.97
2019-01-11T20:47:59.985Z,4.97
2019-01-11T20:50:30.739Z,4.97
2019-01-11T20:53:01.155Z,4.95
2019-01-11T20:55:33.065Z,4.90
2019-01-11T20:58:03.328Z,4.87
2019-01-11T21:00:35.205Z,4.79
2019-01-11T21:03:07.886Z,4.82
2019-01-11T21:05:38.476Z,4.86
2019-01-11T21:08:10.696Z,4.89
2019-01-11T21:10:41.330Z,4.93
2019-01-11T21:13:12.164Z,4.87
2019-01-11T21:15:43.399Z,4.88
2019-01-11T21:18:13.778Z,4.88
2019-01-11T21:20:44.211Z,4.85
2019-01-11T21:23:15.705Z,4.86
2019-01-11T21:25:46.010Z,4.81
2019-01-11T21:28:16.439Z,4.83
2019-01-11T21:30:46.886Z,4.82
2019-01-11T21:33:17.461Z,4.84
2019-01-11T21:35:47.846Z,4.80
2019-01-11T21:38:18.154Z,4.80
2019-01-11T21:40:48.481Z,4.82
2019-01-11T21:43:18.612Z,4.86
2019-01-11T21:45:49.620Z,4.84
2019-01-11T21:48:21.127Z,4.85
2019-01-11T21:50:55.685Z,4.82
2019-01-11T21:53:25.995Z,4.86
2019-01-11T21:55:57.097Z,4.91
2019-01-11T21:58:27.504Z,4.89
2019-01-11T22:00:58.378Z,4.84
2019-01-11T22:03:29.196Z,4.84
2019-01-11T22:05:59.638Z,4.77
2019-01-11T22:08:30.105Z,4.79
2019-01-11T22:11:00.557Z,4.78
2019-01-11T22:13:30.909Z,4.75
2019-01-11T22:16:01.533Z,4.82
2019-01-11T22:18:31.975Z,4.86
2019-01-11T22:21:02.187Z,4.83
2019-01-11T22:23:32.511Z,4.81
2019-01-11T22:26:03.338Z,4.80
2019-01-11T22:28:34.114Z,4.79
2019-01-11T22:31:04.985Z,4.81
2019-01-11T22:33:35.224Z,4.87
2019-01-11T22:36:06.318Z,4.87
2019-01-11T22:38:37.365Z,4.83
2019-01-11T22:41:07.615Z,4.80
2019-01-11T22:43:37.868Z,4.81
2019-01-11T22:46:08.177Z,4.80
2019-01-11T22:48:38.379Z,4.81
2019-01-11T22:51:08.724Z,4.83
2019-01-11T22:53:39.042Z,4.82
2019-01-11T22:56:09.564Z,4.79
2019-01-11T22:58:39.809Z,4.74
2019-01-11T23:01:30.167Z,4.73
2019-01-11T23:04:01.552Z,4.73
2019-01-11T23:06:59.890Z,4.73
2019-01-11T23:09:51.751Z,4.72
2019-01-11T23:12:47.810Z,4.70
2019-01-11T23:15:22.939Z,4.71
2019-01-11T23:18:00.078Z,4.68
2019-01-11T23:20:31.790Z,4.70
2019-01-11T23:23:02.373Z,4.72
2019-01-11T23:25:32.669Z,4.72
2019-01-11T23:28:03.017Z,4.77
2019-01-11T23:30:33.350Z,4.81
2019-01-11T23:33:03.691Z,4.81
2019-01-11T23:35:33.961Z,4.78
2019-01-11T23:38:04.440Z,4.74
2019-01-11T23:40:35.088Z,4.72
2019-01-11T23:43:05.488Z,4.74
2019-01-11T23:45:36.684Z,4.73
2019-01-11T23:48:06.974Z,4.75
2019-01-11T23:50:37.346Z,4.75
2019-01-11T23:53:07.892Z,4.76
2019-01-11T23:55:38.740Z,4.74
2019-01-11T23:58:09.603Z,4.77
